Time;durP1;ratioP1;P1;durP2;ratioP2;P2;SDS_P1;SDS_P2;PMS_P1;PMS_P2;Temp;Humidity;BMP_temperature;BMP_pressure;BME280_temperature;BME280_humidity;BME280_pressure;Samples;Min_cycle;Max_cycle;Signal;HPM_P1;HPM_P2
2022/07/21 00:01:59;;;;;;;14.90;10.90;;;21.50;99.90;;;;;;5073451;28;20232;-59
2022/07/21 00:04:26;;;;;;;13.57;11.77;;;21.50;99.90;;;;;;5073259;28;20204;-59
2022/07/21 00:06:52;;;;;;;11.88;10.88;;;21.50;99.90;;;;;;5072688;28;20212;-58
2022/07/21 00:09:19;;;;;;;14.65;11.55;;;21.40;99.90;;;;;;5072021;28;20704;-59
2022/07/21 00:11:46;;;;;;;13.25;11.70;;;21.40;99.90;;;;;;5072925;28;20294;-59
2022/07/21 00:14:13;;;;;;;13.50;12.10;;;21.30;99.90;;;;;;5072963;28;20204;-59
2022/07/21 00:16:42;;;;;;;13.68;12.18;;;21.30;99.90;;;;;;5072835;28;20603;-59
2022/07/21 00:19:10;;;;;;;13.65;11.95;;;21.30;99.90;;;;;;5072635;28;20204;-59
2022/07/21 00:21:37;;;;;;;13.85;12.50;;;21.20;99.90;;;;;;5072593;28;20641;-59
2022/07/21 00:24:05;;;;;;;14.13;12.70;;;21.20;99.90;;;;;;5072583;28;20209;-59
2022/07/21 00:26:31;;;;;;;15.77;12.30;;;21.20;99.90;;;;;;5072459;28;20591;-59
2022/07/21 00:28:58;;;;;;;13.75;12.35;;;21.20;99.90;;;;;;5072544;28;20278;-59
2022/07/21 00:31:25;;;;;;;14.30;12.80;;;21.10;99.90;;;;;;5072373;28;20589;-58
2022/07/21 00:33:53;;;;;;;14.90;13.13;;;21.10;99.90;;;;;;5072370;28;20624;-59
2022/07/21 00:36:20;;;;;;;14.82;12.88;;;21.10;99.90;;;;;;5072314;28;20258;-59
2022/07/21 00:38:47;;;;;;;14.43;13.02;;;21.00;99.90;;;;;;5072548;28;20632;-59
2022/07/21 00:41:14;;;;;;;13.75;12.30;;;21.00;99.90;;;;;;5072371;28;20316;-59
2022/07/21 00:43:41;;;;;;;13.52;11.98;;;21.00;99.90;;;;;;5072287;28;20672;-59
2022/07/21 00:46:08;;;;;;;14.02;11.38;;;21.00;99.90;;;;;;5072065;28;20649;-59
2022/07/21 00:48:34;;;;;;;13.32;11.98;;;20.90;99.90;;;;;;5072073;28;20430;-59
2022/07/21 00:51:03;;;;;;;16.25;11.75;;;20.90;99.90;;;;;;5072293;28;20237;-59
2022/07/21 00:53:29;;;;;;;13.93;12.48;;;20.90;99.90;;;;;;5072275;28;20205;-58
2022/07/21 00:55:56;;;;;;;13.15;11.77;;;21.00;99.90;;;;;;5071927;28;20560;-58
2022/07/21 00:58:24;;;;;;;14.35;12.77;;;20.90;99.90;;;;;;5072286;28;20215;-59
2022/07/21 01:00:51;;;;;;;13.63;12.32;;;21.00;99.90;;;;;;5072134;28;20228;-59
2022/07/21 01:03:18;;;;;;;12.52;11.23;;;21.10;99.90;;;;;;5072241;28;20216;-58
2022/07/21 01:05:45;;;;;;;14.23;11.88;;;21.10;99.90;;;;;;5072172;28;20236;-59
2022/07/21 01:08:13;;;;;;;13.90;12.50;;;21.20;99.90;;;;;;5072049;28;20205;-59
2022/07/21 01:10:40;;;;;;;15.32;13.27;;;21.20;99.90;;;;;;5072004;28;20232;-59
2022/07/21 01:13:08;;;;;;;15.15;13.65;;;21.30;99.90;;;;;;5072027;28;20201;-59
2022/07/21 01:15:35;;;;;;;15.68;14.07;;;21.40;99.90;;;;;;5071763;28;20572;-59
2022/07/21 01:18:02;;;;;;;16.98;14.95;;;21.40;99.90;;;;;;5071621;28;20208;-58
2022/07/21 01:20:33;;;;;;;16.80;14.82;;;21.50;99.90;;;;;;5071800;28;20208;-59
2022/07/21 01:23:02;;;;;;;15.85;14.25;;;21.60;99.90;;;;;;5071944;28;20204;-59
2022/07/21 01:25:29;;;;;;;14.93;13.30;;;21.70;99.90;;;;;;5071950;28;20200;-59
2022/07/21 01:27:56;;;;;;;15.23;13.57;;;21.80;99.90;;;;;;5071732;28;20223;-58
2022/07/21 01:30:22;;;;;;;15.80;14.27;;;21.80;99.90;;;;;;5071785;28;20254;-59
2022/07/21 01:32:49;;;;;;;15.57;14.07;;;21.80;99.90;;;;;;5071705;28;20220;-59
2022/07/21 01:35:17;;;;;;;16.27;14.05;;;21.80;99.90;;;;;;5071841;28;20212;-58
2022/07/21 01:37:46;;;;;;;17.05;14.15;;;21.80;99.90;;;;;;5071562;28;20213;-59
2022/07/21 01:42:59;;;;;;;14.80;13.27;;;21.90;99.90;;;;;;5071836;28;20208;-58
2022/07/21 01:45:26;;;;;;;14.23;12.73;;;21.80;99.90;;;;;;5071769;28;20204;-59
2022/07/21 01:47:53;;;;;;;14.27;12.85;;;21.80;99.90;;;;;;5071572;28;20205;-59
2022/07/21 01:50:22;;;;;;;15.63;14.18;;;21.80;99.90;;;;;;5071700;28;20229;-59
2022/07/21 01:52:49;;;;;;;15.50;13.90;;;21.90;99.90;;;;;;5071408;28;20233;-59
2022/07/21 01:55:18;;;;;;;15.43;13.82;;;21.90;99.90;;;;;;5071589;28;20208;-59
2022/07/21 01:57:44;;;;;;;15.45;13.05;;;22.00;99.90;;;;;;5071700;28;20204;-59
2022/07/21 02:00:12;;;;;;;14.68;13.13;;;22.00;99.90;;;;;;5071615;28;20208;-58
2022/07/21 02:02:38;;;;;;;16.58;13.35;;;22.00;99.90;;;;;;5071498;28;20231;-59
2022/07/21 02:05:06;;;;;;;14.98;13.35;;;22.00;99.90;;;;;;5071536;28;20209;-59
2022/07/21 02:07:33;;;;;;;14.20;12.80;;;22.00;99.90;;;;;;5071126;28;20296;-59
2022/07/21 02:09:59;;;;;;;15.18;13.43;;;22.10;99.90;;;;;;5071756;28;20216;-59
2022/07/21 02:12:28;;;;;;;16.88;12.63;;;22.10;99.90;;;;;;5071640;28;20607;-59
2022/07/21 02:14:55;;;;;;;13.98;12.57;;;22.10;99.90;;;;;;5071799;28;20216;-58
2022/07/21 02:17:22;;;;;;;14.07;12.63;;;22.10;99.90;;;;;;5070935;28;20608;-58
2022/07/21 02:19:48;;;;;;;14.68;11.90;;;22.10;99.90;;;;;;5071306;28;20614;-58
2022/07/21 02:22:15;;;;;;;12.70;11.45;;;22.10;99.90;;;;;;5071222;28;20224;-59
2022/07/21 02:24:42;;;;;;;13.30;10.93;;;22.10;99.90;;;;;;5071624;28;20293;-59
2022/07/21 02:27:08;;;;;;;13.20;11.98;;;22.20;99.90;;;;;;5071126;28;20201;-59
2022/07/21 02:29:36;;;;;;;13.02;11.45;;;22.20;99.90;;;;;;5071075;28;20228;-59
2022/07/21 02:32:04;;;;;;;14.82;11.40;;;22.20;99.90;;;;;;5071553;28;20258;-59
2022/07/21 02:34:31;;;;;;;13.15;11.20;;;22.20;99.90;;;;;;5074696;28;20209;-58
2022/07/21 02:36:57;;;;;;;15.63;11.68;;;22.20;99.90;;;;;;5074314;28;20212;-59
2022/07/21 02:39:25;;;;;;;12.05;10.82;;;22.20;99.90;;;;;;5074835;28;20231;-59
2022/07/21 02:41:52;;;;;;;15.10;11.52;;;22.10;99.90;;;;;;5074679;28;20221;-58
2022/07/21 02:44:19;;;;;;;13.10;11.82;;;21.90;99.90;;;;;;5074625;28;20254;-59
2022/07/21 02:46:47;;;;;;;13.93;12.52;;;21.90;99.90;;;;;;5074568;28;20235;-59
2022/07/21 02:49:13;;;;;;;13.82;12.40;;;21.90;99.90;;;;;;5074402;28;20680;-59
2022/07/21 02:51:40;;;;;;;12.95;11.65;;;21.90;99.90;;;;;;5074243;28;20782;-59
2022/07/21 02:54:07;;;;;;;13.13;11.57;;;21.90;99.90;;;;;;5074427;28;20227;-59
2022/07/21 02:56:33;;;;;;;12.93;10.82;;;21.90;99.90;;;;;;5074246;28;20204;-59
2022/07/21 02:59:00;;;;;;;12.18;11.07;;;21.90;99.90;;;;;;5074649;28;20209;-59
2022/07/21 03:01:27;;;;;;;12.57;11.18;;;21.90;99.90;;;;;;5074258;28;20245;-58
2022/07/21 03:03:55;;;;;;;13.35;9.82;;;22.00;99.90;;;;;;5074034;28;20208;-59
2022/07/21 03:06:21;;;;;;;11.77;10.48;;;21.90;99.90;;;;;;5073793;28;20668;-59
2022/07/21 03:08:48;;;;;;;13.18;11.48;;;21.90;99.90;;;;;;5074172;28;20205;-59
2022/07/21 03:11:15;;;;;;;13.10;11.15;;;21.90;99.90;;;;;;5073823;28;20721;-59
2022/07/21 03:13:41;;;;;;;12.40;11.10;;;21.80;99.90;;;;;;5073939;28;20665;-59
2022/07/21 03:16:08;;;;;;;14.60;12.00;;;21.70;99.90;;;;;;5074261;28;20209;-59
2022/07/21 03:18:35;;;;;;;13.68;11.82;;;21.70;99.90;;;;;;5073817;28;20577;-59
2022/07/21 03:21:03;;;;;;;14.20;12.70;;;21.70;99.90;;;;;;5073987;28;20248;-59
2022/07/21 03:23:30;;;;;;;14.68;13.18;;;21.70;99.90;;;;;;5073989;28;20278;-60
2022/07/21 03:25:57;;;;;;;15.23;13.77;;;21.70;99.90;;;;;;5073829;28;20209;-60
2022/07/21 03:28:23;;;;;;;15.52;12.35;;;21.70;99.90;;;;;;5073534;28;20230;-59
2022/07/21 03:30:50;;;;;;;12.73;11.43;;;21.70;99.90;;;;;;5073488;28;20271;-60
2022/07/21 03:33:17;;;;;;;15.15;12.70;;;21.70;99.90;;;;;;5073442;28;20209;-60
2022/07/21 03:35:44;;;;;;;14.82;12.73;;;21.80;99.90;;;;;;5073650;28;20212;-59
2022/07/21 03:38:12;;;;;;;16.95;14.52;;;21.80;99.90;;;;;;5073459;28;20254;-60
2022/07/21 03:40:39;;;;;;;13.90;12.50;;;21.80;99.90;;;;;;5073469;28;20228;-60
2022/07/21 03:43:07;;;;;;;14.57;12.82;;;21.90;99.90;;;;;;5073363;28;20235;-60
2022/07/21 03:45:36;;;;;;;14.73;13.25;;;21.70;99.90;;;;;;5073824;28;20233;-59
2022/07/21 03:48:06;;;;;;;15.40;13.88;;;21.50;99.90;;;;;;5073252;28;20212;-59
2022/07/21 03:50:33;;;;;;;18.42;13.18;;;21.50;99.90;;;;;;5073537;28;20256;-59
2022/07/21 03:53:00;;;;;;;15.18;13.65;;;21.40;99.90;;;;;;5096871;22;20228;-57
2022/07/21 03:55:29;;;;;;;28.30;24.35;;;21.40;99.90;;;;;;5073407;28;20227;-57
2022/07/21 03:57:58;;;;;;;24.50;16.83;;;21.60;99.90;;;;;;5073031;28;20205;-57
2022/07/21 04:00:27;;;;;;;17.13;15.43;;;21.70;99.90;;;;;;5074449;28;20695;-56
2022/07/21 04:02:54;;;;;;;18.63;14.10;;;21.80;99.90;;;;;;5074406;28;20224;-61
2022/07/21 04:05:21;;;;;;;14.48;13.15;;;21.90;99.90;;;;;;5073502;28;20588;-57
2022/07/21 04:07:50;;;;;;;18.27;14.40;;;21.80;99.90;;;;;;5072953;28;20208;-57
2022/07/21 04:10:19;;;;;;;16.63;13.27;;;21.80;99.90;;;;;;5072979;28;20251;-57
2022/07/21 04:12:47;;;;;;;14.32;12.93;;;21.80;99.90;;;;;;5073141;28;20236;-57
2022/07/21 04:15:14;;;;;;;14.93;12.57;;;21.70;99.90;;;;;;5074021;28;20703;-56
2022/07/21 04:17:41;;;;;;;15.13;13.52;;;21.60;99.90;;;;;;5074052;28;20216;-57
2022/07/21 04:20:09;;;;;;;16.73;14.48;;;21.60;99.90;;;;;;5074284;28;20212;-57
2022/07/21 04:22:37;;;;;;;14.15;12.70;;;21.70;99.90;;;;;;5074126;28;20712;-57
2022/07/21 04:25:05;;;;;;;16.38;13.73;;;21.70;99.90;;;;;;5073563;28;20209;-56
2022/07/21 04:27:33;;;;;;;16.02;14.38;;;21.80;99.90;;;;;;5072949;28;20208;-57
2022/07/21 04:30:01;;;;;;;14.73;13.32;;;21.90;99.90;;;;;;5072582;28;20208;-57
2022/07/21 04:32:28;;;;;;;15.70;14.18;;;22.00;99.90;;;;;;5072610;28;20224;-57
2022/07/21 04:34:54;;;;;;;15.18;13.55;;;22.10;99.90;;;;;;5072673;28;20287;-58
2022/07/21 04:37:21;;;;;;;15.88;13.52;;;22.10;99.90;;;;;;5072413;28;20209;-57
2022/07/21 04:39:48;;;;;;;15.82;13.43;;;22.20;99.90;;;;;;5072638;28;20204;-58
2022/07/21 04:42:15;;;;;;;15.23;13.57;;;22.30;99.90;;;;;;5072729;28;20496;-58
2022/07/21 04:44:42;;;;;;;15.77;12.98;;;22.40;99.90;;;;;;5072759;28;20231;-58
2022/07/21 04:47:10;;;;;;;13.68;12.23;;;22.50;99.90;;;;;;5072086;28;20700;-58
2022/07/21 04:49:37;;;;;;;13.02;11.65;;;22.50;99.90;;;;;;5072477;28;20204;-58
2022/07/21 04:52:04;;;;;;;14.18;11.43;;;22.60;99.90;;;;;;5072120;28;20241;-58
2022/07/21 04:54:31;;;;;;;12.65;11.15;;;22.80;99.90;;;;;;5072000;28;20657;-58
2022/07/21 04:56:57;;;;;;;14.02;11.98;;;22.90;99.90;;;;;;5071836;28;20508;-58
2022/07/21 04:59:24;;;;;;;11.50;10.40;;;22.90;99.90;;;;;;5072342;28;20282;-58
2022/07/21 05:01:51;;;;;;;13.73;10.93;;;22.90;99.90;;;;;;5072268;28;20231;-58
2022/07/21 05:04:19;;;;;;;13.25;10.52;;;23.00;99.90;;;;;;5072050;28;20213;-58
2022/07/21 05:06:46;;;;;;;12.68;10.02;;;22.90;99.90;;;;;;5071921;28;20200;-58
2022/07/21 05:09:12;;;;;;;11.45;9.82;;;22.90;99.90;;;;;;5072204;28;20204;-58
2022/07/21 05:11:39;;;;;;;12.35;10.55;;;22.90;99.90;;;;;;5072080;28;20229;-58
2022/07/21 05:14:06;;;;;;;11.73;10.02;;;22.90;99.90;;;;;;5072216;28;20217;-58
2022/07/21 05:16:33;;;;;;;11.05;9.95;;;22.80;99.90;;;;;;5071834;28;20293;-58
2022/07/21 05:18:59;;;;;;;9.88;8.88;;;22.80;99.90;;;;;;5071885;28;20217;-58
2022/07/21 05:21:27;;;;;;;10.48;9.45;;;22.80;99.90;;;;;;5071744;28;20240;-57
2022/07/21 05:23:54;;;;;;;10.80;9.52;;;22.90;99.90;;;;;;5072261;28;20212;-58
2022/07/21 05:26:22;;;;;;;10.20;9.20;;;23.10;99.90;;;;;;5072084;28;20212;-57
2022/07/21 05:28:49;;;;;;;13.13;8.90;;;23.30;99.90;;;;;;5072127;28;20560;-58
2022/07/21 05:31:15;;;;;;;9.95;8.68;;;23.60;99.90;;;;;;5071921;28;20225;-59
2022/07/21 05:33:42;;;;;;;10.10;8.95;;;23.90;99.90;;;;;;5071778;28;20204;-59
2022/07/21 05:36:09;;;;;;;9.05;8.07;;;24.20;99.90;;;;;;5071696;28;20213;-58
2022/07/21 05:38:37;;;;;;;11.68;8.80;;;24.30;99.90;;;;;;5071844;28;20204;-58
2022/07/21 05:41:04;;;;;;;8.73;7.82;;;24.70;99.90;;;;;;5071620;28;20197;-59
2022/07/21 05:43:31;;;;;;;8.90;7.88;;;25.70;99.90;;;;;;5071768;28;20212;-58
2022/07/21 05:45:58;;;;;;;11.93;8.30;;;26.40;99.90;;;;;;5071676;28;20213;-59
2022/07/21 05:48:25;;;;;;;9.52;8.23;;;26.70;99.90;;;;;;5071450;28;20201;-58
2022/07/21 05:50:52;;;;;;;9.77;8.45;;;27.10;99.90;;;;;;5071765;28;20644;-58
2022/07/21 05:53:19;;;;;;;10.27;7.95;;;27.10;99.90;;;;;;5071387;28;20216;-59
2022/07/21 05:55:47;;;;;;;9.27;8.38;;;26.80;99.90;;;;;;5071681;28;20630;-59
2022/07/21 05:58:14;;;;;;;10.80;7.80;;;26.70;99.90;;;;;;5071703;28;20229;-59
2022/07/21 06:00:40;;;;;;;9.82;7.97;;;26.70;99.90;;;;;;5071837;28;20201;-59
2022/07/21 06:03:07;;;;;;;9.82;8.25;;;27.40;99.90;;;;;;5071433;28;20649;-58
2022/07/21 06:05:34;;;;;;;9.10;7.60;;;28.10;99.90;;;;;;5072170;28;20235;-63
2022/07/21 06:08:01;;;;;;;8.77;7.25;;;29.30;99.90;;;;;;5069866;28;20205;-60
2022/07/21 06:10:28;;;;;;;11.38;7.47;;;31.00;99.90;;;;;;5075257;28;20287;-57
2022/07/21 06:12:57;;;;;;;8.73;7.10;;;32.30;99.90;;;;;;5074814;28;20225;-59
2022/07/21 06:15:24;;;;;;;8.98;7.40;;;33.50;99.90;;;;;;5076821;28;20212;-62
2022/07/21 06:17:51;;;;;;;7.90;7.18;;;34.70;99.50;;;;;;5074473;28;20571;-61
2022/07/21 06:20:17;;;;;;;7.78;6.72;;;34.80;97.30;;;;;;5074255;28;20473;-59
2022/07/21 06:22:44;;;;;;;9.05;7.13;;;34.00;97.80;;;;;;5074272;28;20578;-57
2022/07/21 06:25:11;;;;;;;8.98;6.85;;;32.80;99.30;;;;;;5074259;28;20711;-58
2022/07/21 06:27:38;;;;;;;9.75;7.82;;;31.80;99.90;;;;;;5074654;28;20209;-57
2022/07/21 06:30:07;;;;;;;9.77;7.90;;;31.10;99.90;;;;;;5074579;28;20212;-57
2022/07/21 06:32:34;;;;;;;11.63;7.50;;;30.40;99.90;;;;;;5074281;28;20233;-57
2022/07/21 06:35:01;;;;;;;8.45;6.63;;;30.00;99.90;;;;;;5074499;28;20685;-58
2022/07/21 06:37:27;;;;;;;9.27;7.05;;;30.40;99.90;;;;;;5074046;28;20621;-57
2022/07/21 06:39:54;;;;;;;11.18;7.30;;;30.20;99.90;;;;;;5074092;28;20642;-57
2022/07/21 06:42:21;;;;;;;8.50;7.63;;;29.90;99.90;;;;;;5074284;28;20593;-57
2022/07/21 06:44:47;;;;;;;7.45;6.75;;;29.80;99.90;;;;;;5073470;28;20208;-58
2022/07/21 06:47:16;;;;;;;8.35;7.28;;;30.00;99.90;;;;;;5074149;28;20205;-57
2022/07/21 06:49:42;;;;;;;9.68;7.57;;;30.00;99.90;;;;;;5073463;28;20598;-57
2022/07/21 06:52:09;;;;;;;8.68;7.32;;;29.80;99.90;;;;;;5073391;28;20236;-57
2022/07/21 06:54:36;;;;;;;10.43;6.78;;;29.70;99.90;;;;;;5073863;28;20212;-57
2022/07/21 06:57:03;;;;;;;8.57;7.20;;;29.50;99.90;;;;;;5072986;28;20201;-57
2022/07/21 06:59:29;;;;;;;7.80;7.00;;;29.30;99.90;;;;;;5073405;28;20216;-57
2022/07/21 07:01:56;;;;;;;12.60;10.35;;;30.00;99.90;;;;;;5073593;28;20278;-57
2022/07/21 07:04:24;;;;;;;7.32;6.63;;;31.90;99.90;;;;;;5073479;28;20205;-58
2022/07/21 07:06:52;;;;;;;6.65;6.00;;;33.80;96.60;;;;;;5073586;28;20216;-58
2022/07/21 07:09:19;;;;;;;8.27;6.45;;;34.30;94.80;;;;;;5073161;28;20731;-57
2022/07/21 07:11:47;;;;;;;8.55;6.25;;;34.20;93.30;;;;;;5073459;28;20232;-57
2022/07/21 07:14:14;;;;;;;7.05;6.07;;;34.30;91.70;;;;;;5073061;28;20727;-57
2022/07/21 07:16:41;;;;;;;6.35;5.75;;;34.10;91.70;;;;;;5073059;28;20629;-58
2022/07/21 07:19:07;;;;;;;7.15;5.80;;;35.20;89.80;;;;;;5072790;28;20205;-58
2022/07/21 07:21:35;;;;;;;9.25;6.32;;;36.80;83.30;;;;;;5073296;28;20220;-58
2022/07/21 07:24:02;;;;;;;9.65;6.30;;;38.30;77.50;;;;;;5073028;28;20587;-62
2022/07/21 07:26:29;;;;;;;8.35;6.10;;;39.60;69.10;;;;;;5073628;28;20297;-57
2022/07/21 07:28:56;;;;;;;8.88;6.70;;;39.30;67.60;;;;;;5073774;28;20209;-59
2022/07/21 07:31:23;;;;;;;8.32;5.78;;;38.90;68.00;;;;;;5073752;28;20236;-59
2022/07/21 07:33:50;;;;;;;6.72;5.28;;;39.90;66.60;;;;;;5072929;28;20204;-61
2022/07/21 07:36:16;;;;;;;12.13;5.80;;;40.50;61.70;;;;;;5073675;28;20208;-61
2022/07/21 07:38:44;;;;;;;7.43;5.70;;;40.00;61.90;;;;;;5073652;28;20640;-61
2022/07/21 07:41:11;;;;;;;5.38;4.88;;;40.60;61.00;;;;;;5072825;28;20212;-58
2022/07/21 07:43:38;;;;;;;6.82;4.90;;;40.30;60.60;;;;;;5073023;28;20630;-60
2022/07/21 07:46:05;;;;;;;6.60;5.28;;;39.30;60.60;;;;;;5072550;28;20204;-58
2022/07/21 07:48:34;;;;;;;6.60;5.55;;;38.30;63.00;;;;;;5072458;28;20212;-60
2022/07/21 07:51:01;;;;;;;10.70;5.78;;;37.40;64.60;;;;;;5072328;28;20801;-61
2022/07/21 07:53:27;;;;;;;8.10;5.70;;;36.30;67.30;;;;;;5072645;28;20201;-59
2022/07/21 07:55:55;;;;;;;5.70;5.05;;;35.50;69.60;;;;;;5072605;28;20205;-60
2022/07/21 07:58:22;;;;;;;8.32;5.05;;;34.90;69.30;;;;;;5067092;28;20216;-57
2022/07/21 08:00:49;;;;;;;8.68;5.30;;;34.60;70.10;;;;;;5067945;28;20201;-60
2022/07/21 08:03:16;;;;;;;9.27;5.53;;;34.60;72.70;;;;;;5051699;28;20650;-59
2022/07/21 08:05:43;;;;;;;8.38;5.60;;;35.40;70.40;;;;;;5051196;28;20206;-62
2022/07/21 08:08:09;;;;;;;6.28;5.68;;;35.40;69.70;;;;;;5052440;28;20214;-63
2022/07/21 08:10:37;;;;;;;7.15;5.75;;;35.80;68.40;;;;;;5052028;28;20214;-62
2022/07/21 08:13:05;;;;;;;8.10;5.70;;;36.60;65.90;;;;;;5052737;28;20303;-62
2022/07/21 08:15:31;;;;;;;7.25;5.68;;;37.60;63.30;;;;;;5052217;28;20673;-61
2022/07/21 08:17:58;;;;;;;5.93;5.32;;;37.20;63.80;;;;;;5052203;28;20201;-61
2022/07/21 08:20:25;;;;;;;5.68;4.90;;;36.50;65.50;;;;;;5051486;28;20689;-58
2022/07/21 08:22:51;;;;;;;8.55;5.43;;;35.70;66.80;;;;;;5051808;28;20229;-59
2022/07/21 08:25:18;;;;;;;9.43;5.45;;;35.10;68.40;;;;;;5052013;28;20661;-59
2022/07/21 08:27:45;;;;;;;6.30;5.20;;;34.70;69.40;;;;;;5051944;28;20214;-57
2022/07/21 08:30:14;;;;;;;5.90;4.85;;;34.50;71.00;;;;;;5050973;28;20677;-56
2022/07/21 08:32:41;;;;;;;5.85;5.20;;;34.70;69.90;;;;;;5051845;28;20226;-57
2022/07/21 08:35:08;;;;;;;6.45;5.57;;;34.70;70.00;;;;;;5051390;28;20297;-56
2022/07/21 08:37:35;;;;;;;6.95;4.90;;;35.20;69.10;;;;;;5051689;28;20258;-57
2022/07/21 08:40:03;;;;;;;7.53;5.40;;;35.10;68.40;;;;;;5051869;28;20240;-56
2022/07/21 08:42:30;;;;;;;7.22;5.70;;;34.60;70.10;;;;;;5051866;28;20763;-56
2022/07/21 08:44:57;;;;;;;7.40;5.65;;;33.50;72.70;;;;;;5051810;28;20214;-57
2022/07/21 08:47:26;;;;;;;6.32;5.65;;;32.40;75.30;;;;;;5051283;28;20209;-57
2022/07/21 08:49:54;;;;;;;7.38;5.93;;;31.40;79.00;;;;;;5051399;28;20205;-56
2022/07/21 08:52:20;;;;;;;8.10;5.53;;;30.70;81.10;;;;;;5051477;28;20609;-57
2022/07/21 08:54:47;;;;;;;5.93;5.32;;;30.40;83.90;;;;;;5051394;28;20212;-56
2022/07/21 08:57:14;;;;;;;10.73;5.43;;;30.10;84.80;;;;;;5050763;28;20213;-56
2022/07/21 08:59:40;;;;;;;6.60;5.25;;;30.00;84.50;;;;;;5051252;28;20214;-57
2022/07/21 09:02:27;;;;;;;8.85;5.55;;;30.00;85.90;;;;;;5050953;28;20217;-57
2022/07/21 09:04:55;;;;;;;6.45;5.53;;;29.90;85.90;;;;;;5051497;28;20292;-56
2022/07/21 09:07:23;;;;;;;6.93;5.60;;;29.80;87.30;;;;;;5050997;28;20243;-57
2022/07/21 09:09:57;;;;;;;10.55;5.68;;;29.80;87.50;;;;;;5051074;28;20209;-57
2022/07/21 09:12:23;;;;;;;7.65;4.85;;;29.60;87.90;;;;;;5050981;28;20225;-57
2022/07/21 09:14:50;;;;;;;6.40;4.60;;;29.60;88.80;;;;;;5050828;28;20210;-56
2022/07/21 09:17:19;;;;;;;7.43;4.82;;;29.60;86.40;;;;;;5050941;28;20213;-57
2022/07/21 09:19:49;;;;;;;5.88;4.00;;;29.60;84.30;;;;;;5051137;28;20216;-57
2022/07/21 09:22:18;;;;;;;4.78;4.25;;;29.40;83.10;;;;;;5050842;28;20256;-58
2022/07/21 09:24:50;;;;;;;10.68;4.85;;;29.40;84.40;;;;;;5051154;28;20210;-59
2022/07/21 09:27:18;;;;;;;6.22;4.35;;;29.30;85.80;;;;;;5051045;28;20606;-57
2022/07/21 09:29:47;;;;;;;4.85;4.22;;;29.30;83.60;;;;;;5050970;28;20660;-56
2022/07/21 09:32:16;;;;;;;7.13;4.28;;;29.20;84.50;;;;;;5050403;28;20685;-56
2022/07/21 09:34:43;;;;;;;6.82;4.47;;;29.10;85.70;;;;;;5050600;28;20292;-57
2022/07/21 09:37:12;;;;;;;5.85;4.47;;;29.30;86.90;;;;;;5050318;28;20706;-57
2022/07/21 09:39:43;;;;;;;6.30;4.95;;;29.40;87.50;;;;;;5050448;28;20210;-56
2022/07/21 09:42:18;;;;;;;7.20;4.40;;;29.60;88.10;;;;;;5053263;28;20230;-56
2022/07/21 09:44:47;;;;;;;4.57;3.92;;;29.80;84.00;;;;;;5055024;28;20212;-57
2022/07/21 09:47:15;;;;;;;9.68;4.22;;;30.20;81.90;;;;;;5054008;28;20607;-56
2022/07/21 09:49:44;;;;;;;4.53;4.10;;;30.40;82.20;;;;;;5054608;28;20612;-56
2022/07/21 09:52:29;;;;;;;4.72;4.22;;;30.50;81.80;;;;;;5087667;23;20699;-54
2022/07/21 09:54:58;;;;;;;11.98;6.70;;;30.70;81.80;;;;;;5086492;28;20196;-55
2022/07/21 09:57:25;;;;;;;5.60;4.22;;;31.00;79.70;;;;;;5094439;28;20232;-59
2022/07/21 09:59:52;;;;;;;7.30;4.28;;;31.40;77.90;;;;;;5094496;28;20215;-58
2022/07/21 10:02:22;;;;;;;7.25;4.35;;;31.80;76.00;;;;;;5094566;28;20223;-58
2022/07/21 10:04:58;;;;;;;7.43;5.35;;;32.10;74.60;;;;;;5095521;28;20224;-59
2022/07/21 10:07:27;;;;;;;6.55;4.20;;;32.20;74.40;;;;;;5094130;28;20302;-60
2022/07/21 10:09:55;;;;;;;5.43;3.95;;;32.10;74.10;;;;;;5094212;28;20736;-61
2022/07/21 10:12:22;;;;;;;6.15;4.00;;;32.10;74.20;;;;;;5093938;28;20671;-59
2022/07/21 10:14:50;;;;;;;6.10;4.22;;;32.00;75.20;;;;;;5094886;28;20690;-62
2022/07/21 10:17:17;;;;;;;12.00;4.30;;;32.00;74.00;;;;;;5094020;28;20196;-60
2022/07/21 10:19:54;;;;;;;14.40;4.65;;;31.90;73.50;;;;;;5094301;28;20212;-60
2022/07/21 10:22:30;;;;;;;5.00;4.38;;;31.70;73.80;;;;;;5094611;28;20277;-60
2022/07/21 10:24:58;;;;;;;5.22;4.00;;;31.70;74.80;;;;;;5094184;28;20200;-59
2022/07/21 10:27:25;;;;;;;6.97;3.90;;;31.80;73.90;;;;;;5093938;28;20206;-60
2022/07/21 10:29:58;;;;;;;9.23;4.97;;;31.80;73.30;;;;;;5094688;28;20663;-60
2022/07/21 10:32:27;;;;;;;18.67;15.32;;;31.50;73.70;;;;;;5094446;28;20421;-58
2022/07/21 10:34:54;;;;;;;5.05;3.85;;;31.20;75.40;;;;;;5094315;28;20273;-58
2022/07/21 10:37:58;;;;;;;5.45;3.95;;;30.70;76.70;;;;;;5094097;28;20216;-59
2022/07/21 10:40:44;;;;;;;4.68;3.67;;;30.30;79.00;;;;;;5094381;28;20203;-59
2022/07/21 10:43:42;;;;;;;4.32;3.90;;;29.80;79.60;;;;;;5094542;28;20220;-58
2022/07/21 10:46:35;;;;;;;5.97;4.43;;;29.90;79.20;;;;;;5094186;28;20216;-60
2022/07/21 10:49:05;;;;;;;9.20;4.13;;;29.90;79.50;;;;;;5093901;28;20239;-58
2022/07/21 10:51:34;;;;;;;4.45;4.05;;;29.90;80.70;;;;;;5094214;28;20316;-61
2022/07/21 10:54:34;;;;;;;4.85;3.80;;;30.00;80.80;;;;;;5093017;28;20220;-57
2022/07/21 10:57:27;;;;;;;6.72;3.97;;;30.20;80.50;;;;;;5092738;28;20215;-59
2022/07/21 11:00:19;;;;;;;7.30;4.28;;;30.10;80.40;;;;;;5064106;28;20244;-56
2022/07/21 11:02:48;;;;;;;4.80;4.18;;;30.00;80.30;;;;;;5073828;28;20229;-59
2022/07/21 11:05:15;;;;;;;5.55;3.90;;;29.70;80.40;;;;;;5073709;28;20295;-58
2022/07/21 11:08:11;;;;;;;4.88;4.05;;;29.30;81.50;;;;;;5073620;28;20205;-61
2022/07/21 11:10:39;;;;;;;4.30;3.80;;;29.00;84.10;;;;;;5073972;28;20227;-55
2022/07/21 11:13:07;;;;;;;5.00;3.95;;;28.90;83.80;;;;;;5073116;28;20286;-55
2022/07/21 11:15:44;;;;;;;4.78;4.07;;;29.00;83.80;;;;;;5073043;28;20249;-55
2022/07/21 11:18:11;;;;;;;5.95;4.05;;;29.10;83.90;;;;;;5073313;28;20216;-55
2022/07/21 11:20:38;;;;;;;4.72;4.18;;;29.10;83.20;;;;;;5072905;28;20200;-58
2022/07/21 11:23:05;;;;;;;5.95;5.15;;;29.00;82.70;;;;;;5072395;28;20229;-57
2022/07/21 11:25:31;;;;;;;4.55;4.10;;;28.80;83.20;;;;;;5072975;28;20205;-60
2022/07/21 11:27:58;;;;;;;4.28;3.47;;;28.80;83.20;;;;;;5072617;28;20266;-57
2022/07/21 11:30:26;;;;;;;5.75;3.90;;;29.00;81.90;;;;;;5073000;28;20238;-60
2022/07/21 11:32:53;;;;;;;5.22;3.85;;;29.10;82.30;;;;;;5072983;28;20233;-60
2022/07/21 11:35:20;;;;;;;5.32;3.78;;;29.30;82.20;;;;;;5072931;28;20213;-55
2022/07/21 11:37:47;;;;;;;5.82;4.18;;;29.30;81.80;;;;;;5071929;28;20266;-59
2022/07/21 11:40:16;;;;;;;5.32;4.82;;;29.20;81.70;;;;;;5072731;28;20275;-58
2022/07/21 11:42:44;;;;;;;3.80;3.40;;;29.10;81.30;;;;;;5072447;28;20221;-60
2022/07/21 11:45:12;;;;;;;5.18;3.30;;;29.20;80.00;;;;;;5072820;28;20220;-57
2022/07/21 11:47:41;;;;;;;4.60;3.42;;;29.40;79.30;;;;;;5072370;28;20209;-57
2022/07/21 11:50:10;;;;;;;5.57;3.20;;;29.60;78.80;;;;;;5072127;28;20213;-57
2022/07/21 11:52:38;;;;;;;5.78;3.63;;;29.90;76.20;;;;;;5071947;28;20237;-58
2022/07/21 11:55:08;;;;;;;6.13;3.40;;;30.50;73.40;;;;;;5072354;28;20209;-59
2022/07/21 11:57:35;;;;;;;4.60;3.50;;;31.00;73.30;;;;;;5072207;28;20223;-58
2022/07/21 12:00:05;;;;;;;5.80;3.22;;;31.30;71.40;;;;;;5072486;28;20266;-60
2022/07/21 12:02:33;;;;;;;4.18;3.17;;;31.80;70.70;;;;;;5072353;28;20308;-59
2022/07/21 12:05:03;;;;;;;5.72;3.42;;;32.20;69.10;;;;;;5071729;28;20205;-60
2022/07/21 12:07:32;;;;;;;5.00;3.53;;;32.40;68.80;;;;;;5071940;28;20288;-58
2022/07/21 12:10:01;;;;;;;5.15;3.50;;;32.40;69.00;;;;;;5071875;28;20213;-56
2022/07/21 12:12:33;;;;;;;5.68;3.40;;;32.00;69.40;;;;;;5071705;28;20229;-56
2022/07/21 12:15:12;;;;;;;5.30;3.53;;;31.70;69.80;;;;;;5071963;28;20208;-56
2022/07/21 12:17:40;;;;;;;11.77;4.38;;;31.50;71.40;;;;;;5071551;28;20669;-54
2022/07/21 12:20:10;;;;;;;4.90;3.25;;;31.40;71.50;;;;;;5071555;28;20213;-56
2022/07/21 12:22:38;;;;;;;3.85;3.20;;;31.40;71.10;;;;;;5072075;28;20280;-54
2022/07/21 12:25:07;;;;;;;3.63;3.33;;;31.40;70.60;;;;;;5071884;28;20267;-54
2022/07/21 12:27:34;;;;;;;4.85;3.17;;;31.50;71.30;;;;;;5071806;28;20247;-55
2022/07/21 12:30:01;;;;;;;4.10;3.53;;;31.60;70.40;;;;;;5071820;28;20204;-55
2022/07/21 12:32:46;;;;;;;6.00;3.50;;;31.90;69.10;;;;;;5071674;28;20728;-55
2022/07/21 12:35:26;;;;;;;5.40;3.47;;;32.00;69.70;;;;;;5071573;28;20245;-53
2022/07/21 12:38:01;;;;;;;5.90;3.55;;;32.00;69.50;;;;;;5071545;28;20205;-55
2022/07/21 12:40:29;;;;;;;6.57;3.90;;;31.90;68.00;;;;;;5071767;28;20204;-55
2022/07/21 12:43:11;;;;;;;3.97;3.42;;;31.80;68.90;;;;;;5071571;28;20315;-55
2022/07/21 12:45:49;;;;;;;5.10;3.65;;;31.50;70.30;;;;;;5071791;28;20232;-55
2022/07/21 12:48:18;;;;;;;4.60;3.80;;;31.30;70.90;;;;;;5071185;28;20204;-55